Piperton, Tennessee
Current Conditions -  °F | °C
As of 4:50 PM on Saturday 20 Dec 2014 (Local Time) from KOLV Reporting Station
Scattered Clouds Scattered Clouds  
Wind Chill: 39°   Ceiling: Unl
Heat Index: 43°   Visibility: 10mi
Dew Point: 36°   Wind: 6mph
Humidity: 76%   Direction: 10°N
Pressure: 30.22"   Gusts: NA
Location:  35.0418°N, 89.6647°W
Report Text: KOLV 202250Z 01005KT 10SM SCT050 06/02 A3022
Loading
Personal Weather Stations






























Interactive Weather Map New forecast layout! Learn more

10-Day Weather Forecast

Advertisements
Track Severe Weather on mobile